sensor_id;sensor_type;location;lat;lon;timestamp;P1;durP1;ratioP1;P2;durP2;ratioP2
313;SDS011;143;51.634;7.112;2023-08-17T00:00:15;3.47;;;1.90;;
313;SDS011;143;51.634;7.112;2023-08-17T00:02:43;6.70;;;2.33;;
313;SDS011;143;51.634;7.112;2023-08-17T00:05:09;5.13;;;2.40;;
313;SDS011;143;51.634;7.112;2023-08-17T00:07:35;3.83;;;2.23;;
313;SDS011;143;51.634;7.112;2023-08-17T00:10:01;4.10;;;2.40;;
313;SDS011;143;51.634;7.112;2023-08-17T00:12:27;4.67;;;2.20;;
313;SDS011;143;51.634;7.112;2023-08-17T00:14:53;7.70;;;3.13;;
313;SDS011;143;51.634;7.112;2023-08-17T00:17:19;6.57;;;2.83;;
313;SDS011;143;51.634;7.112;2023-08-17T00:19:45;6.13;;;3.13;;
313;SDS011;143;51.634;7.112;2023-08-17T00:22:11;5.60;;;2.70;;
313;SDS011;143;51.634;7.112;2023-08-17T00:24:36;9.73;;;2.93;;
313;SDS011;143;51.634;7.112;2023-08-17T00:27:02;5.93;;;2.53;;
313;SDS011;143;51.634;7.112;2023-08-17T00:29:29;8.33;;;3.10;;
313;SDS011;143;51.634;7.112;2023-08-17T00:31:55;10.80;;;3.40;;
313;SDS011;143;51.634;7.112;2023-08-17T00:34:20;7.60;;;2.57;;
313;SDS011;143;51.634;7.112;2023-08-17T00:36:46;10.27;;;3.60;;
313;SDS011;143;51.634;7.112;2023-08-17T00:39:12;5.97;;;2.63;;
313;SDS011;143;51.634;7.112;2023-08-17T00:41:39;5.17;;;3.00;;
313;SDS011;143;51.634;7.112;2023-08-17T00:44:05;18.73;;;3.33;;
313;SDS011;143;51.634;7.112;2023-08-17T00:46:31;8.73;;;3.53;;
313;SDS011;143;51.634;7.112;2023-08-17T00:48:57;7.23;;;3.07;;
313;SDS011;143;51.634;7.112;2023-08-17T00:51:23;6.07;;;3.20;;
313;SDS011;143;51.634;7.112;2023-08-17T00:53:54;5.67;;;2.77;;
313;SDS011;143;51.634;7.112;2023-08-17T00:56:22;6.57;;;2.53;;
313;SDS011;143;51.634;7.112;2023-08-17T00:58:48;12.80;;;3.67;;
313;SDS011;143;51.634;7.112;2023-08-17T01:01:14;7.63;;;2.97;;
313;SDS011;143;51.634;7.112;2023-08-17T01:03:40;8.30;;;2.90;;
313;SDS011;143;51.634;7.112;2023-08-17T01:06:08;8.67;;;3.17;;
313;SDS011;143;51.634;7.112;2023-08-17T01:08:34;11.47;;;3.30;;
313;SDS011;143;51.634;7.112;2023-08-17T01:16:31;11.63;;;3.80;;
313;SDS011;143;51.634;7.112;2023-08-17T01:19:03;6.03;;;2.97;;
313;SDS011;143;51.634;7.112;2023-08-17T01:21:35;5.97;;;2.97;;
313;SDS011;143;51.634;7.112;2023-08-17T01:24:09;6.90;;;3.70;;
313;SDS011;143;51.634;7.112;2023-08-17T01:26:37;7.97;;;3.90;;
313;SDS011;143;51.634;7.112;2023-08-17T01:29:02;5.13;;;3.17;;
313;SDS011;143;51.634;7.112;2023-08-17T01:31:30;6.77;;;3.43;;
313;SDS011;143;51.634;7.112;2023-08-17T01:34:03;6.50;;;3.30;;
313;SDS011;143;51.634;7.112;2023-08-17T01:36:35;10.30;;;3.90;;
313;SDS011;143;51.634;7.112;2023-08-17T01:39:04;10.30;;;3.67;;
313;SDS011;143;51.634;7.112;2023-08-17T01:41:32;7.10;;;4.10;;
313;SDS011;143;51.634;7.112;2023-08-17T01:43:59;5.70;;;3.33;;
313;SDS011;143;51.634;7.112;2023-08-17T01:46:29;8.23;;;3.70;;
313;SDS011;143;51.634;7.112;2023-08-17T01:48:59;5.40;;;3.47;;
313;SDS011;143;51.634;7.112;2023-08-17T01:51:25;9.63;;;3.63;;
313;SDS011;143;51.634;7.112;2023-08-17T01:53:51;7.10;;;3.10;;
313;SDS011;143;51.634;7.112;2023-08-17T01:56:16;5.87;;;3.13;;
313;SDS011;143;51.634;7.112;2023-08-17T01:58:42;5.37;;;2.97;;
313;SDS011;143;51.634;7.112;2023-08-17T02:01:08;5.63;;;3.23;;
313;SDS011;143;51.634;7.112;2023-08-17T02:03:34;7.50;;;3.63;;
313;SDS011;143;51.634;7.112;2023-08-17T02:06:00;6.60;;;2.50;;
313;SDS011;143;51.634;7.112;2023-08-17T02:08:26;9.17;;;4.00;;
313;SDS011;143;51.634;7.112;2023-08-17T02:10:52;8.00;;;3.07;;
313;SDS011;143;51.634;7.112;2023-08-17T02:13:18;4.03;;;2.93;;
313;SDS011;143;51.634;7.112;2023-08-17T02:15:44;5.93;;;3.50;;
313;SDS011;143;51.634;7.112;2023-08-17T02:18:11;7.03;;;3.53;;
313;SDS011;143;51.634;7.112;2023-08-17T02:20:37;6.20;;;3.47;;
313;SDS011;143;51.634;7.112;2023-08-17T02:23:02;5.33;;;3.43;;
313;SDS011;143;51.634;7.112;2023-08-17T02:25:28;9.57;;;3.57;;
313;SDS011;143;51.634;7.112;2023-08-17T02:28:00;8.00;;;3.87;;
313;SDS011;143;51.634;7.112;2023-08-17T02:30:29;7.33;;;4.30;;
313;SDS011;143;51.634;7.112;2023-08-17T02:32:55;16.40;;;4.27;;
313;SDS011;143;51.634;7.112;2023-08-17T02:35:20;9.30;;;3.33;;
313;SDS011;143;51.634;7.112;2023-08-17T02:37:47;6.67;;;3.70;;
313;SDS011;143;51.634;7.112;2023-08-17T02:40:13;3.70;;;3.17;;
313;SDS011;143;51.634;7.112;2023-08-17T02:42:38;12.57;;;4.10;;
313;SDS011;143;51.634;7.112;2023-08-17T02:45:05;9.03;;;3.27;;
313;SDS011;143;51.634;7.112;2023-08-17T02:47:32;10.87;;;3.60;;
313;SDS011;143;51.634;7.112;2023-08-17T02:49:57;11.20;;;3.57;;
313;SDS011;143;51.634;7.112;2023-08-17T02:52:23;6.93;;;3.40;;
313;SDS011;143;51.634;7.112;2023-08-17T02:54:49;5.40;;;2.77;;
313;SDS011;143;51.634;7.112;2023-08-17T02:57:15;6.40;;;4.13;;
313;SDS011;143;51.634;7.112;2023-08-17T02:59:40;8.43;;;3.73;;
313;SDS011;143;51.634;7.112;2023-08-17T03:02:06;7.43;;;3.83;;
313;SDS011;143;51.634;7.112;2023-08-17T03:04:32;11.53;;;3.70;;
313;SDS011;143;51.634;7.112;2023-08-17T03:06:58;6.80;;;3.00;;
313;SDS011;143;51.634;7.112;2023-08-17T03:09:24;8.43;;;3.23;;
313;SDS011;143;51.634;7.112;2023-08-17T03:11:49;10.30;;;3.90;;
313;SDS011;143;51.634;7.112;2023-08-17T03:14:15;8.03;;;3.47;;
313;SDS011;143;51.634;7.112;2023-08-17T03:16:41;12.43;;;4.07;;
313;SDS011;143;51.634;7.112;2023-08-17T03:19:06;7.93;;;3.60;;
313;SDS011;143;51.634;7.112;2023-08-17T03:21:36;11.37;;;4.50;;
313;SDS011;143;51.634;7.112;2023-08-17T03:24:02;11.27;;;4.00;;
313;SDS011;143;51.634;7.112;2023-08-17T03:26:28;6.40;;;3.40;;
313;SDS011;143;51.634;7.112;2023-08-17T03:28:54;9.60;;;4.50;;
313;SDS011;143;51.634;7.112;2023-08-17T03:31:20;14.33;;;4.10;;
313;SDS011;143;51.634;7.112;2023-08-17T03:33:46;14.70;;;4.50;;
313;SDS011;143;51.634;7.112;2023-08-17T03:36:12;9.07;;;3.50;;
313;SDS011;143;51.634;7.112;2023-08-17T03:38:38;11.73;;;4.00;;
313;SDS011;143;51.634;7.112;2023-08-17T03:41:04;6.90;;;3.60;;
313;SDS011;143;51.634;7.112;2023-08-17T03:43:30;8.73;;;3.73;;
313;SDS011;143;51.634;7.112;2023-08-17T03:45:56;10.30;;;4.57;;
313;SDS011;143;51.634;7.112;2023-08-17T03:48:22;11.87;;;3.87;;
313;SDS011;143;51.634;7.112;2023-08-17T03:50:57;10.37;;;4.20;;
313;SDS011;143;51.634;7.112;2023-08-17T03:53:22;7.60;;;4.03;;
313;SDS011;143;51.634;7.112;2023-08-17T03:55:48;8.23;;;4.27;;
313;SDS011;143;51.634;7.112;2023-08-17T03:58:15;5.63;;;3.70;;
313;SDS011;143;51.634;7.112;2023-08-17T04:00:41;8.70;;;3.50;;
313;SDS011;143;51.634;7.112;2023-08-17T04:03:08;14.93;;;4.50;;
313;SDS011;143;51.634;7.112;2023-08-17T04:05:33;8.97;;;4.20;;
313;SDS011;143;51.634;7.112;2023-08-17T04:08:00;11.30;;;4.27;;
313;SDS011;143;51.634;7.112;2023-08-17T04:10:27;13.30;;;5.07;;
313;SDS011;143;51.634;7.112;2023-08-17T04:12:54;12.00;;;4.23;;
313;SDS011;143;51.634;7.112;2023-08-17T04:15:20;8.43;;;3.67;;
313;SDS011;143;51.634;7.112;2023-08-17T04:17:46;7.00;;;4.23;;
313;SDS011;143;51.634;7.112;2023-08-17T04:20:11;12.10;;;4.10;;
313;SDS011;143;51.634;7.112;2023-08-17T04:22:37;8.43;;;3.90;;
313;SDS011;143;51.634;7.112;2023-08-17T04:25:03;9.83;;;4.57;;
313;SDS011;143;51.634;7.112;2023-08-17T04:27:29;9.17;;;4.23;;
313;SDS011;143;51.634;7.112;2023-08-17T04:29:54;6.50;;;3.60;;
313;SDS011;143;51.634;7.112;2023-08-17T04:32:20;17.60;;;5.80;;
313;SDS011;143;51.634;7.112;2023-08-17T04:34:46;9.13;;;4.73;;
313;SDS011;143;51.634;7.112;2023-08-17T04:37:11;9.27;;;4.87;;
313;SDS011;143;51.634;7.112;2023-08-17T04:39:37;11.40;;;4.50;;
313;SDS011;143;51.634;7.112;2023-08-17T04:42:03;7.30;;;4.20;;
313;SDS011;143;51.634;7.112;2023-08-17T04:44:29;13.17;;;4.40;;
313;SDS011;143;51.634;7.112;2023-08-17T04:46:55;9.77;;;4.40;;
313;SDS011;143;51.634;7.112;2023-08-17T04:49:20;7.73;;;4.20;;
313;SDS011;143;51.634;7.112;2023-08-17T04:51:47;5.80;;;3.57;;
313;SDS011;143;51.634;7.112;2023-08-17T04:54:13;18.37;;;4.93;;
313;SDS011;143;51.634;7.112;2023-08-17T04:56:39;6.63;;;4.50;;
313;SDS011;143;51.634;7.112;2023-08-17T04:59:04;6.00;;;4.53;;
313;SDS011;143;51.634;7.112;2023-08-17T05:01:30;12.00;;;5.00;;
313;SDS011;143;51.634;7.112;2023-08-17T05:03:57;13.07;;;4.30;;
313;SDS011;143;51.634;7.112;2023-08-17T05:06:22;11.30;;;4.77;;
313;SDS011;143;51.634;7.112;2023-08-17T05:08:48;9.30;;;4.90;;
313;SDS011;143;51.634;7.112;2023-08-17T05:11:14;7.13;;;4.40;;
313;SDS011;143;51.634;7.112;2023-08-17T05:13:40;6.27;;;3.73;;
313;SDS011;143;51.634;7.112;2023-08-17T05:16:05;4.97;;;4.10;;
313;SDS011;143;51.634;7.112;2023-08-17T05:18:31;7.90;;;3.60;;
313;SDS011;143;51.634;7.112;2023-08-17T05:20:57;5.47;;;3.37;;
313;SDS011;143;51.634;7.112;2023-08-17T05:23:22;14.43;;;5.03;;
313;SDS011;143;51.634;7.112;2023-08-17T05:25:48;18.73;;;5.40;;
313;SDS011;143;51.634;7.112;2023-08-17T05:28:14;7.60;;;4.20;;
313;SDS011;143;51.634;7.112;2023-08-17T05:30:39;8.23;;;4.90;;
313;SDS011;143;51.634;7.112;2023-08-17T05:33:05;12.90;;;5.83;;
313;SDS011;143;51.634;7.112;2023-08-17T05:35:31;17.63;;;5.23;;
313;SDS011;143;51.634;7.112;2023-08-17T05:37:57;11.57;;;5.57;;
313;SDS011;143;51.634;7.112;2023-08-17T05:40:23;9.57;;;4.63;;
313;SDS011;143;51.634;7.112;2023-08-17T05:42:48;8.43;;;5.57;;
313;SDS011;143;51.634;7.112;2023-08-17T05:45:14;8.07;;;4.50;;
313;SDS011;143;51.634;7.112;2023-08-17T05:47:40;7.43;;;4.77;;
313;SDS011;143;51.634;7.112;2023-08-17T05:50:06;6.13;;;3.73;;
313;SDS011;143;51.634;7.112;2023-08-17T05:52:32;9.40;;;4.27;;
313;SDS011;143;51.634;7.112;2023-08-17T05:54:57;11.97;;;5.37;;
313;SDS011;143;51.634;7.112;2023-08-17T05:57:23;7.63;;;3.70;;
313;SDS011;143;51.634;7.112;2023-08-17T05:59:49;14.10;;;4.17;;
313;SDS011;143;51.634;7.112;2023-08-17T06:02:14;15.07;;;4.73;;
313;SDS011;143;51.634;7.112;2023-08-17T06:04:40;15.57;;;5.20;;
313;SDS011;143;51.634;7.112;2023-08-17T06:07:06;9.27;;;4.60;;
313;SDS011;143;51.634;7.112;2023-08-17T06:09:31;12.67;;;5.07;;
313;SDS011;143;51.634;7.112;2023-08-17T06:11:57;15.40;;;4.13;;
313;SDS011;143;51.634;7.112;2023-08-17T06:14:23;9.53;;;5.00;;
313;SDS011;143;51.634;7.112;2023-08-17T06:16:48;8.73;;;4.50;;
313;SDS011;143;51.634;7.112;2023-08-17T06:19:14;13.43;;;5.60;;
313;SDS011;143;51.634;7.112;2023-08-17T06:21:40;9.00;;;4.37;;
313;SDS011;143;51.634;7.112;2023-08-17T06:24:05;12.00;;;4.87;;
313;SDS011;143;51.634;7.112;2023-08-17T06:26:31;9.17;;;4.67;;
313;SDS011;143;51.634;7.112;2023-08-17T06:28:57;6.50;;;4.50;;
313;SDS011;143;51.634;7.112;2023-08-17T06:31:23;7.27;;;4.67;;
313;SDS011;143;51.634;7.112;2023-08-17T06:33:55;9.13;;;5.20;;
313;SDS011;143;51.634;7.112;2023-08-17T06:36:21;11.67;;;5.87;;
313;SDS011;143;51.634;7.112;2023-08-17T06:38:47;15.07;;;5.77;;
313;SDS011;143;51.634;7.112;2023-08-17T06:41:12;15.23;;;6.20;;
313;SDS011;143;51.634;7.112;2023-08-17T06:43:38;11.60;;;5.50;;
313;SDS011;143;51.634;7.112;2023-08-17T06:46:04;12.27;;;5.67;;
313;SDS011;143;51.634;7.112;2023-08-17T06:48:30;10.10;;;5.93;;
313;SDS011;143;51.634;7.112;2023-08-17T06:50:56;16.70;;;5.60;;
313;SDS011;143;51.634;7.112;2023-08-17T06:53:22;11.50;;;5.70;;
313;SDS011;143;51.634;7.112;2023-08-17T06:55:48;7.70;;;5.37;;
313;SDS011;143;51.634;7.112;2023-08-17T06:58:13;13.33;;;5.53;;
313;SDS011;143;51.634;7.112;2023-08-17T07:00:39;10.93;;;5.20;;
313;SDS011;143;51.634;7.112;2023-08-17T07:03:05;12.80;;;6.90;;
313;SDS011;143;51.634;7.112;2023-08-17T07:05:32;10.00;;;5.37;;
313;SDS011;143;51.634;7.112;2023-08-17T07:07:57;13.37;;;5.80;;
313;SDS011;143;51.634;7.112;2023-08-17T07:10:24;13.37;;;6.20;;
313;SDS011;143;51.634;7.112;2023-08-17T07:12:50;7.67;;;5.77;;
313;SDS011;143;51.634;7.112;2023-08-17T07:15:16;16.40;;;6.47;;
313;SDS011;143;51.634;7.112;2023-08-17T07:17:41;16.10;;;7.50;;
313;SDS011;143;51.634;7.112;2023-08-17T07:20:07;11.33;;;6.03;;
313;SDS011;143;51.634;7.112;2023-08-17T07:22:34;14.77;;;6.00;;
313;SDS011;143;51.634;7.112;2023-08-17T07:25:00;11.07;;;6.10;;
313;SDS011;143;51.634;7.112;2023-08-17T07:27:26;11.47;;;6.07;;
313;SDS011;143;51.634;7.112;2023-08-17T07:29:51;15.50;;;7.77;;
313;SDS011;143;51.634;7.112;2023-08-17T07:32:18;16.13;;;6.07;;
313;SDS011;143;51.634;7.112;2023-08-17T07:34:43;13.93;;;7.27;;
313;SDS011;143;51.634;7.112;2023-08-17T07:37:09;16.53;;;8.17;;
313;SDS011;143;51.634;7.112;2023-08-17T07:39:35;12.97;;;7.50;;
313;SDS011;143;51.634;7.112;2023-08-17T07:42:01;18.37;;;8.40;;
313;SDS011;143;51.634;7.112;2023-08-17T07:44:27;8.60;;;6.40;;
313;SDS011;143;51.634;7.112;2023-08-17T07:46:53;13.67;;;7.80;;
313;SDS011;143;51.634;7.112;2023-08-17T07:49:19;17.60;;;7.90;;
313;SDS011;143;51.634;7.112;2023-08-17T07:51:48;10.27;;;6.67;;
313;SDS011;143;51.634;7.112;2023-08-17T07:54:13;11.87;;;6.63;;
313;SDS011;143;51.634;7.112;2023-08-17T07:56:39;21.03;;;7.87;;
313;SDS011;143;51.634;7.112;2023-08-17T07:59:05;13.17;;;6.80;;
313;SDS011;143;51.634;7.112;2023-08-17T08:01:30;20.63;;;7.30;;
313;SDS011;143;51.634;7.112;2023-08-17T08:03:56;16.57;;;7.30;;
313;SDS011;143;51.634;7.112;2023-08-17T08:06:23;11.80;;;6.47;;
313;SDS011;143;51.634;7.112;2023-08-17T08:08:48;13.33;;;8.07;;
313;SDS011;143;51.634;7.112;2023-08-17T08:11:14;10.93;;;6.53;;
313;SDS011;143;51.634;7.112;2023-08-17T08:13:40;14.23;;;6.13;;
313;SDS011;143;51.634;7.112;2023-08-17T08:16:05;13.80;;;7.10;;
313;SDS011;143;51.634;7.112;2023-08-17T08:18:31;10.73;;;7.23;;
313;SDS011;143;51.634;7.112;2023-08-17T08:20:57;12.60;;;7.10;;
313;SDS011;143;51.634;7.112;2023-08-17T08:23:23;12.70;;;7.50;;
313;SDS011;143;51.634;7.112;2023-08-17T08:25:48;15.90;;;7.20;;
313;SDS011;143;51.634;7.112;2023-08-17T08:28:14;11.60;;;8.07;;
313;SDS011;143;51.634;7.112;2023-08-17T08:30:40;14.40;;;8.30;;
313;SDS011;143;51.634;7.112;2023-08-17T08:33:06;13.00;;;7.80;;
313;SDS011;143;51.634;7.112;2023-08-17T08:35:31;11.33;;;7.03;;
313;SDS011;143;51.634;7.112;2023-08-17T08:37:58;14.67;;;8.20;;
313;SDS011;143;51.634;7.112;2023-08-17T08:40:27;14.47;;;7.73;;
313;SDS011;143;51.634;7.112;2023-08-17T08:42:55;15.33;;;8.70;;
313;SDS011;143;51.634;7.112;2023-08-17T08:45:22;11.93;;;7.63;;
313;SDS011;143;51.634;7.112;2023-08-17T08:47:49;13.13;;;7.87;;
313;SDS011;143;51.634;7.112;2023-08-17T08:50:19;13.77;;;9.60;;
313;SDS011;143;51.634;7.112;2023-08-17T08:52:53;16.27;;;8.07;;
313;SDS011;143;51.634;7.112;2023-08-17T08:55:26;16.87;;;10.00;;
313;SDS011;143;51.634;7.112;2023-08-17T08:57:54;12.20;;;8.00;;
313;SDS011;143;51.634;7.112;2023-08-17T09:00:22;13.17;;;8.53;;
313;SDS011;143;51.634;7.112;2023-08-17T09:02:50;12.57;;;8.60;;
313;SDS011;143;51.634;7.112;2023-08-17T09:05:17;13.40;;;8.20;;
313;SDS011;143;51.634;7.112;2023-08-17T09:07:43;19.93;;;9.43;;
313;SDS011;143;51.634;7.112;2023-08-17T09:10:10;13.13;;;9.33;;
313;SDS011;143;51.634;7.112;2023-08-17T09:12:36;12.93;;;8.17;;
313;SDS011;143;51.634;7.112;2023-08-17T09:15:02;15.13;;;8.73;;
313;SDS011;143;51.634;7.112;2023-08-17T09:17:28;15.43;;;9.33;;
313;SDS011;143;51.634;7.112;2023-08-17T09:19:56;15.63;;;9.37;;
313;SDS011;143;51.634;7.112;2023-08-17T09:22:30;14.50;;;7.90;;
313;SDS011;143;51.634;7.112;2023-08-17T09:25:06;14.03;;;9.33;;
313;SDS011;143;51.634;7.112;2023-08-17T09:27:32;15.93;;;8.87;;
313;SDS011;143;51.634;7.112;2023-08-17T09:30:04;17.00;;;9.40;;
313;SDS011;143;51.634;7.112;2023-08-17T09:32:32;17.50;;;10.43;;
313;SDS011;143;51.634;7.112;2023-08-17T09:35:04;14.23;;;9.30;;
313;SDS011;143;51.634;7.112;2023-08-17T09:37:31;19.53;;;9.63;;
313;SDS011;143;51.634;7.112;2023-08-17T09:39:58;18.47;;;9.40;;
313;SDS011;143;51.634;7.112;2023-08-17T09:42:24;19.80;;;8.97;;
313;SDS011;143;51.634;7.112;2023-08-17T09:44:51;14.40;;;9.43;;
313;SDS011;143;51.634;7.112;2023-08-17T09:47:17;16.53;;;9.40;;
313;SDS011;143;51.634;7.112;2023-08-17T09:49:51;18.53;;;10.47;;
313;SDS011;143;51.634;7.112;2023-08-17T09:52:21;19.43;;;9.97;;
313;SDS011;143;51.634;7.112;2023-08-17T09:54:48;17.30;;;10.27;;
313;SDS011;143;51.634;7.112;2023-08-17T09:57:17;27.63;;;10.80;;
313;SDS011;143;51.634;7.112;2023-08-17T09:59:42;17.77;;;9.43;;
313;SDS011;143;51.634;7.112;2023-08-17T10:02:26;21.70;;;9.90;;
313;SDS011;143;51.634;7.112;2023-08-17T10:04:54;26.17;;;9.97;;
313;SDS011;143;51.634;7.112;2023-08-17T10:07:23;17.03;;;10.97;;
313;SDS011;143;51.634;7.112;2023-08-17T10:10:05;19.87;;;11.70;;
313;SDS011;143;51.634;7.112;2023-08-17T10:12:37;14.33;;;10.33;;
313;SDS011;143;51.634;7.112;2023-08-17T10:15:09;18.70;;;10.83;;
313;SDS011;143;51.634;7.112;2023-08-17T10:18:13;15.73;;;9.23;;
313;SDS011;143;51.634;7.112;2023-08-17T10:20:42;20.20;;;10.47;;
313;SDS011;143;51.634;7.112;2023-08-17T10:23:15;22.23;;;11.83;;
313;SDS011;143;51.634;7.112;2023-08-17T10:25:43;20.20;;;10.73;;
313;SDS011;143;51.634;7.112;2023-08-17T10:28:09;18.23;;;10.23;;
313;SDS011;143;51.634;7.112;2023-08-17T10:30:36;17.07;;;9.97;;
313;SDS011;143;51.634;7.112;2023-08-17T10:33:03;14.67;;;9.97;;
313;SDS011;143;51.634;7.112;2023-08-17T10:35:31;15.73;;;10.00;;
313;SDS011;143;51.634;7.112;2023-08-17T10:37:58;19.90;;;9.60;;
313;SDS011;143;51.634;7.112;2023-08-17T10:40:27;18.73;;;11.20;;
313;SDS011;143;51.634;7.112;2023-08-17T10:42:54;16.70;;;9.90;;
313;SDS011;143;51.634;7.112;2023-08-17T10:45:29;13.30;;;9.07;;
313;SDS011;143;51.634;7.112;2023-08-17T10:50:37;22.43;;;10.80;;
313;SDS011;143;51.634;7.112;2023-08-17T10:53:04;21.37;;;11.60;;
313;SDS011;143;51.634;7.112;2023-08-17T10:55:42;16.63;;;10.20;;
313;SDS011;143;51.634;7.112;2023-08-17T10:58:10;17.60;;;11.73;;
313;SDS011;143;51.634;7.112;2023-08-17T11:00:37;23.33;;;13.30;;
313;SDS011;143;51.634;7.112;2023-08-17T11:03:04;19.83;;;11.90;;
313;SDS011;143;51.634;7.112;2023-08-17T11:05:46;21.37;;;12.13;;
313;SDS011;143;51.634;7.112;2023-08-17T11:08:21;28.23;;;12.73;;
313;SDS011;143;51.634;7.112;2023-08-17T11:10:56;23.20;;;12.73;;
313;SDS011;143;51.634;7.112;2023-08-17T11:13:24;25.67;;;12.17;;
313;SDS011;143;51.634;7.112;2023-08-17T11:15:51;23.10;;;13.93;;
313;SDS011;143;51.634;7.112;2023-08-17T11:18:17;30.67;;;14.03;;
313;SDS011;143;51.634;7.112;2023-08-17T11:20:43;26.37;;;15.10;;
313;SDS011;143;51.634;7.112;2023-08-17T11:23:09;30.70;;;14.20;;
313;SDS011;143;51.634;7.112;2023-08-17T11:25:37;30.03;;;14.70;;
313;SDS011;143;51.634;7.112;2023-08-17T11:28:03;22.93;;;12.97;;
313;SDS011;143;51.634;7.112;2023-08-17T11:30:31;24.37;;;12.80;;
313;SDS011;143;51.634;7.112;2023-08-17T11:32:59;21.17;;;13.47;;
313;SDS011;143;51.634;7.112;2023-08-17T11:35:25;21.40;;;13.50;;
313;SDS011;143;51.634;7.112;2023-08-17T11:37:51;28.70;;;13.80;;
313;SDS011;143;51.634;7.112;2023-08-17T11:40:17;23.03;;;12.60;;
313;SDS011;143;51.634;7.112;2023-08-17T11:42:43;27.57;;;14.70;;
313;SDS011;143;51.634;7.112;2023-08-17T11:45:10;20.67;;;12.97;;
313;SDS011;143;51.634;7.112;2023-08-17T11:47:37;22.13;;;14.00;;
313;SDS011;143;51.634;7.112;2023-08-17T11:50:03;21.63;;;13.60;;
313;SDS011;143;51.634;7.112;2023-08-17T11:52:30;25.63;;;12.80;;
313;SDS011;143;51.634;7.112;2023-08-17T11:55:01;24.67;;;13.20;;
313;SDS011;143;51.634;7.112;2023-08-17T11:57:29;20.07;;;12.60;;
313;SDS011;143;51.634;7.112;2023-08-17T11:59:55;20.50;;;12.17;;
313;SDS011;143;51.634;7.112;2023-08-17T12:02:24;19.50;;;11.23;;
313;SDS011;143;51.634;7.112;2023-08-17T12:04:54;23.03;;;13.27;;
313;SDS011;143;51.634;7.112;2023-08-17T12:07:21;22.53;;;12.47;;
313;SDS011;143;51.634;7.112;2023-08-17T12:09:48;22.90;;;11.20;;
313;SDS011;143;51.634;7.112;2023-08-17T12:12:18;20.17;;;11.53;;
313;SDS011;143;51.634;7.112;2023-08-17T12:14:46;25.13;;;12.10;;
313;SDS011;143;51.634;7.112;2023-08-17T12:17:16;24.97;;;11.60;;
313;SDS011;143;51.634;7.112;2023-08-17T12:19:43;16.40;;;10.77;;
313;SDS011;143;51.634;7.112;2023-08-17T12:22:10;18.53;;;11.67;;
313;SDS011;143;51.634;7.112;2023-08-17T12:24:38;25.37;;;13.80;;
313;SDS011;143;51.634;7.112;2023-08-17T12:27:04;24.23;;;12.83;;
313;SDS011;143;51.634;7.112;2023-08-17T12:29:30;20.60;;;12.67;;
313;SDS011;143;51.634;7.112;2023-08-17T12:31:56;20.37;;;13.13;;
313;SDS011;143;51.634;7.112;2023-08-17T12:34:22;20.63;;;13.67;;
313;SDS011;143;51.634;7.112;2023-08-17T12:36:48;27.63;;;12.53;;
313;SDS011;143;51.634;7.112;2023-08-17T12:39:15;19.87;;;11.83;;
313;SDS011;143;51.634;7.112;2023-08-17T12:41:41;16.87;;;11.50;;
313;SDS011;143;51.634;7.112;2023-08-17T12:44:08;22.07;;;11.73;;
313;SDS011;143;51.634;7.112;2023-08-17T12:46:34;22.50;;;10.97;;
313;SDS011;143;51.634;7.112;2023-08-17T12:49:00;18.53;;;11.10;;
313;SDS011;143;51.634;7.112;2023-08-17T12:51:26;22.30;;;14.90;;
313;SDS011;143;51.634;7.112;2023-08-17T12:53:51;22.97;;;12.60;;
313;SDS011;143;51.634;7.112;2023-08-17T12:56:17;23.83;;;13.37;;
313;SDS011;143;51.634;7.112;2023-08-17T12:58:43;19.53;;;13.53;;
313;SDS011;143;51.634;7.112;2023-08-17T13:01:08;25.63;;;14.20;;
313;SDS011;143;51.634;7.112;2023-08-17T13:03:34;23.10;;;13.43;;
313;SDS011;143;51.634;7.112;2023-08-17T13:06:00;24.33;;;13.80;;
313;SDS011;143;51.634;7.112;2023-08-17T13:08:26;25.30;;;12.67;;
313;SDS011;143;51.634;7.112;2023-08-17T13:10:51;24.73;;;13.20;;
313;SDS011;143;51.634;7.112;2023-08-17T13:13:17;23.03;;;13.73;;
313;SDS011;143;51.634;7.112;2023-08-17T13:15:43;23.53;;;13.30;;
313;SDS011;143;51.634;7.112;2023-08-17T13:18:09;26.37;;;14.73;;
313;SDS011;143;51.634;7.112;2023-08-17T13:20:34;30.13;;;13.80;;
313;SDS011;143;51.634;7.112;2023-08-17T13:23:02;21.37;;;11.57;;
313;SDS011;143;51.634;7.112;2023-08-17T13:25:27;24.07;;;13.83;;
313;SDS011;143;51.634;7.112;2023-08-17T13:27:53;24.30;;;12.43;;
313;SDS011;143;51.634;7.112;2023-08-17T13:30:19;21.87;;;12.60;;
313;SDS011;143;51.634;7.112;2023-08-17T13:32:44;25.20;;;13.20;;
313;SDS011;143;51.634;7.112;2023-08-17T13:35:10;19.17;;;13.53;;
313;SDS011;143;51.634;7.112;2023-08-17T13:37:36;25.00;;;13.13;;
313;SDS011;143;51.634;7.112;2023-08-17T13:40:02;25.00;;;13.80;;
313;SDS011;143;51.634;7.112;2023-08-17T13:42:28;34.27;;;14.07;;
313;SDS011;143;51.634;7.112;2023-08-17T13:44:54;23.50;;;13.17;;
313;SDS011;143;51.634;7.112;2023-08-17T13:47:20;20.30;;;11.90;;
313;SDS011;143;51.634;7.112;2023-08-17T13:49:46;17.43;;;12.53;;
313;SDS011;143;51.634;7.112;2023-08-17T13:52:11;18.27;;;12.50;;
313;SDS011;143;51.634;7.112;2023-08-17T13:54:37;21.87;;;12.23;;
313;SDS011;143;51.634;7.112;2023-08-17T13:57:03;16.23;;;12.20;;
313;SDS011;143;51.634;7.112;2023-08-17T13:59:28;23.37;;;12.60;;
313;SDS011;143;51.634;7.112;2023-08-17T14:01:55;18.10;;;11.07;;
313;SDS011;143;51.634;7.112;2023-08-17T14:04:21;17.80;;;11.77;;
313;SDS011;143;51.634;7.112;2023-08-17T14:06:47;19.23;;;11.80;;
313;SDS011;143;51.634;7.112;2023-08-17T14:09:13;16.70;;;9.73;;
313;SDS011;143;51.634;7.112;2023-08-17T14:11:38;13.60;;;9.17;;
313;SDS011;143;51.634;7.112;2023-08-17T14:14:04;22.97;;;11.57;;
313;SDS011;143;51.634;7.112;2023-08-17T14:16:30;16.93;;;10.37;;
313;SDS011;143;51.634;7.112;2023-08-17T14:18:56;20.17;;;10.60;;
313;SDS011;143;51.634;7.112;2023-08-17T14:21:21;14.47;;;9.73;;
313;SDS011;143;51.634;7.112;2023-08-17T14:23:47;13.97;;;8.80;;
313;SDS011;143;51.634;7.112;2023-08-17T14:26:13;18.53;;;11.00;;
313;SDS011;143;51.634;7.112;2023-08-17T14:28:40;17.80;;;10.67;;
313;SDS011;143;51.634;7.112;2023-08-17T14:31:05;16.40;;;10.43;;
313;SDS011;143;51.634;7.112;2023-08-17T14:33:31;17.13;;;10.50;;
313;SDS011;143;51.634;7.112;2023-08-17T14:35:57;13.60;;;9.03;;
313;SDS011;143;51.634;7.112;2023-08-17T14:38:22;19.73;;;10.80;;
313;SDS011;143;51.634;7.112;2023-08-17T14:40:48;18.40;;;11.10;;
313;SDS011;143;51.634;7.112;2023-08-17T14:43:14;17.83;;;10.70;;
313;SDS011;143;51.634;7.112;2023-08-17T14:45:43;16.90;;;9.80;;
313;SDS011;143;51.634;7.112;2023-08-17T14:48:09;16.60;;;10.80;;
313;SDS011;143;51.634;7.112;2023-08-17T14:50:35;19.70;;;10.43;;
313;SDS011;143;51.634;7.112;2023-08-17T14:53:01;16.70;;;11.07;;
313;SDS011;143;51.634;7.112;2023-08-17T14:55:31;19.13;;;11.93;;
313;SDS011;143;51.634;7.112;2023-08-17T14:57:57;15.30;;;9.90;;
313;SDS011;143;51.634;7.112;2023-08-17T15:00:23;17.77;;;9.30;;
313;SDS011;143;51.634;7.112;2023-08-17T15:02:49;15.83;;;10.07;;
313;SDS011;143;51.634;7.112;2023-08-17T15:05:15;19.13;;;10.10;;
313;SDS011;143;51.634;7.112;2023-08-17T15:07:40;13.00;;;9.30;;
313;SDS011;143;51.634;7.112;2023-08-17T15:10:06;13.37;;;9.00;;
313;SDS011;143;51.634;7.112;2023-08-17T15:12:32;13.33;;;8.70;;
313;SDS011;143;51.634;7.112;2023-08-17T15:14:58;15.83;;;9.40;;
313;SDS011;143;51.634;7.112;2023-08-17T15:17:24;15.10;;;9.17;;
313;SDS011;143;51.634;7.112;2023-08-17T15:19:49;12.80;;;7.30;;
313;SDS011;143;51.634;7.112;2023-08-17T15:22:15;13.80;;;9.57;;
313;SDS011;143;51.634;7.112;2023-08-17T15:24:42;15.07;;;8.27;;
313;SDS011;143;51.634;7.112;2023-08-17T15:27:11;13.53;;;7.97;;
313;SDS011;143;51.634;7.112;2023-08-17T15:29:37;19.70;;;9.30;;
313;SDS011;143;51.634;7.112;2023-08-17T15:32:05;19.10;;;8.77;;
313;SDS011;143;51.634;7.112;2023-08-17T15:34:30;11.20;;;8.33;;